sensor_id;sensor_type;location;lat;lon;timestamp;P1;durP1;ratioP1;P2;durP2;ratioP2
64282;SDS011;50497;50.720;-2.084;2023-05-10T00:02:17;10.27;;;3.22;;
64282;SDS011;50497;50.720;-2.084;2023-05-10T00:04:42;10.38;;;3.03;;
64282;SDS011;50497;50.720;-2.084;2023-05-10T00:07:07;10.38;;;2.80;;
64282;SDS011;50497;50.720;-2.084;2023-05-10T00:09:37;10.15;;;2.88;;
64282;SDS011;50497;50.720;-2.084;2023-05-10T00:12:02;9.85;;;3.13;;
64282;SDS011;50497;50.720;-2.084;2023-05-10T00:14:28;9.13;;;3.03;;
64282;SDS011;50497;50.720;-2.084;2023-05-10T00:16:53;10.63;;;2.90;;
64282;SDS011;50497;50.720;-2.084;2023-05-10T00:19:21;10.65;;;3.05;;
64282;SDS011;50497;50.720;-2.084;2023-05-10T00:21:47;9.98;;;2.83;;
64282;SDS011;50497;50.720;-2.084;2023-05-10T00:24:13;10.98;;;2.58;;
64282;SDS011;50497;50.720;-2.084;2023-05-10T00:26:38;9.82;;;2.78;;
64282;SDS011;50497;50.720;-2.084;2023-05-10T00:29:08;8.95;;;3.03;;
64282;SDS011;50497;50.720;-2.084;2023-05-10T00:31:34;11.00;;;3.17;;
64282;SDS011;50497;50.720;-2.084;2023-05-10T00:33:59;11.52;;;2.92;;
64282;SDS011;50497;50.720;-2.084;2023-05-10T00:36:25;11.48;;;3.03;;
64282;SDS011;50497;50.720;-2.084;2023-05-10T00:38:51;10.23;;;2.90;;
64282;SDS011;50497;50.720;-2.084;2023-05-10T00:41:16;10.30;;;2.70;;
64282;SDS011;50497;50.720;-2.084;2023-05-10T00:43:42;9.07;;;2.70;;
64282;SDS011;50497;50.720;-2.084;2023-05-10T00:46:07;11.07;;;2.72;;
64282;SDS011;50497;50.720;-2.084;2023-05-10T00:48:36;10.40;;;2.83;;
64282;SDS011;50497;50.720;-2.084;2023-05-10T00:51:02;11.98;;;3.05;;
64282;SDS011;50497;50.720;-2.084;2023-05-10T00:53:28;8.50;;;2.90;;
64282;SDS011;50497;50.720;-2.084;2023-05-10T00:56:00;8.13;;;2.45;;
64282;SDS011;50497;50.720;-2.084;2023-05-10T00:58:29;12.55;;;3.13;;
64282;SDS011;50497;50.720;-2.084;2023-05-10T01:00:55;8.45;;;2.67;;
64282;SDS011;50497;50.720;-2.084;2023-05-10T01:03:22;8.02;;;2.30;;
64282;SDS011;50497;50.720;-2.084;2023-05-10T01:05:47;9.65;;;2.80;;
64282;SDS011;50497;50.720;-2.084;2023-05-10T01:08:13;10.18;;;2.80;;
64282;SDS011;50497;50.720;-2.084;2023-05-10T01:10:39;7.88;;;2.65;;
64282;SDS011;50497;50.720;-2.084;2023-05-10T01:13:05;9.13;;;2.63;;
64282;SDS011;50497;50.720;-2.084;2023-05-10T01:15:31;7.05;;;2.28;;
64282;SDS011;50497;50.720;-2.084;2023-05-10T01:18:01;11.02;;;2.53;;
64282;SDS011;50497;50.720;-2.084;2023-05-10T01:20:28;9.38;;;2.65;;
64282;SDS011;50497;50.720;-2.084;2023-05-10T01:23:11;10.52;;;2.67;;
64282;SDS011;50497;50.720;-2.084;2023-05-10T01:31:52;8.30;;;2.50;;
64282;SDS011;50497;50.720;-2.084;2023-05-10T01:34:35;11.85;;;2.67;;
64282;SDS011;50497;50.720;-2.084;2023-05-10T01:37:25;8.00;;;2.63;;
64282;SDS011;50497;50.720;-2.084;2023-05-10T01:40:30;10.63;;;2.60;;
64282;SDS011;50497;50.720;-2.084;2023-05-10T01:43:03;12.88;;;2.80;;
64282;SDS011;50497;50.720;-2.084;2023-05-10T01:48:35;15.10;;;2.90;;
64282;SDS011;50497;50.720;-2.084;2023-05-10T01:51:05;15.82;;;2.70;;
64282;SDS011;50497;50.720;-2.084;2023-05-10T01:53:35;12.73;;;2.65;;
64282;SDS011;50497;50.720;-2.084;2023-05-10T01:56:02;13.23;;;3.70;;
64282;SDS011;50497;50.720;-2.084;2023-05-10T01:58:34;10.38;;;2.80;;
64282;SDS011;50497;50.720;-2.084;2023-05-10T02:01:05;12.15;;;2.88;;
64282;SDS011;50497;50.720;-2.084;2023-05-10T02:03:35;12.30;;;2.88;;
64282;SDS011;50497;50.720;-2.084;2023-05-10T02:06:03;11.25;;;2.50;;
64282;SDS011;50497;50.720;-2.084;2023-05-10T02:08:34;10.43;;;2.72;;
64282;SDS011;50497;50.720;-2.084;2023-05-10T02:11:01;10.95;;;2.50;;
64282;SDS011;50497;50.720;-2.084;2023-05-10T02:13:28;10.82;;;2.80;;
64282;SDS011;50497;50.720;-2.084;2023-05-10T02:15:56;12.95;;;2.95;;
64282;SDS011;50497;50.720;-2.084;2023-05-10T02:18:28;10.70;;;2.65;;
64282;SDS011;50497;50.720;-2.084;2023-05-10T02:20:55;13.32;;;3.08;;
64282;SDS011;50497;50.720;-2.084;2023-05-10T02:23:22;11.38;;;3.10;;
64282;SDS011;50497;50.720;-2.084;2023-05-10T02:25:49;13.18;;;2.92;;
64282;SDS011;50497;50.720;-2.084;2023-05-10T02:28:21;14.30;;;3.95;;
64282;SDS011;50497;50.720;-2.084;2023-05-10T02:30:48;13.98;;;3.05;;
64282;SDS011;50497;50.720;-2.084;2023-05-10T02:33:14;15.15;;;3.17;;
64282;SDS011;50497;50.720;-2.084;2023-05-10T02:35:41;15.55;;;3.28;;
64282;SDS011;50497;50.720;-2.084;2023-05-10T02:38:07;15.48;;;3.20;;
64282;SDS011;50497;50.720;-2.084;2023-05-10T02:40:37;13.43;;;3.40;;
64282;SDS011;50497;50.720;-2.084;2023-05-10T02:43:03;17.25;;;3.50;;
64282;SDS011;50497;50.720;-2.084;2023-05-10T02:45:34;14.48;;;3.28;;
64282;SDS011;50497;50.720;-2.084;2023-05-10T02:48:04;14.02;;;3.63;;
64282;SDS011;50497;50.720;-2.084;2023-05-10T02:50:30;12.80;;;3.67;;
64282;SDS011;50497;50.720;-2.084;2023-05-10T02:53:02;12.38;;;2.95;;
64282;SDS011;50497;50.720;-2.084;2023-05-10T02:55:40;14.02;;;3.10;;
64282;SDS011;50497;50.720;-2.084;2023-05-10T02:58:08;12.13;;;3.20;;
64282;SDS011;50497;50.720;-2.084;2023-05-10T03:00:33;12.43;;;2.90;;
64282;SDS011;50497;50.720;-2.084;2023-05-10T03:03:02;16.40;;;3.00;;
64282;SDS011;50497;50.720;-2.084;2023-05-10T03:05:32;11.25;;;3.20;;
64282;SDS011;50497;50.720;-2.084;2023-05-10T03:07:58;10.45;;;3.00;;
64282;SDS011;50497;50.720;-2.084;2023-05-10T03:10:31;14.35;;;3.33;;
64282;SDS011;50497;50.720;-2.084;2023-05-10T03:15:37;15.43;;;3.58;;
64282;SDS011;50497;50.720;-2.084;2023-05-10T03:18:28;15.88;;;3.30;;
64282;SDS011;50497;50.720;-2.084;2023-05-10T03:21:03;14.30;;;3.65;;
64282;SDS011;50497;50.720;-2.084;2023-05-10T03:26:33;14.38;;;3.33;;
64282;SDS011;50497;50.720;-2.084;2023-05-10T03:29:04;15.02;;;3.65;;
64282;SDS011;50497;50.720;-2.084;2023-05-10T03:31:31;17.20;;;3.70;;
64282;SDS011;50497;50.720;-2.084;2023-05-10T03:33:57;16.63;;;3.90;;
64282;SDS011;50497;50.720;-2.084;2023-05-10T03:36:24;17.52;;;3.80;;
64282;SDS011;50497;50.720;-2.084;2023-05-10T03:38:54;18.35;;;3.78;;
64282;SDS011;50497;50.720;-2.084;2023-05-10T03:41:23;18.58;;;4.22;;
64282;SDS011;50497;50.720;-2.084;2023-05-10T03:43:51;17.05;;;3.97;;
64282;SDS011;50497;50.720;-2.084;2023-05-10T03:46:17;15.77;;;3.67;;
64282;SDS011;50497;50.720;-2.084;2023-05-10T03:48:43;18.52;;;3.85;;
64282;SDS011;50497;50.720;-2.084;2023-05-10T03:51:08;14.88;;;3.47;;
64282;SDS011;50497;50.720;-2.084;2023-05-10T03:53:34;19.05;;;4.07;;
64282;SDS011;50497;50.720;-2.084;2023-05-10T03:56:02;18.63;;;4.05;;
64282;SDS011;50497;50.720;-2.084;2023-05-10T03:58:27;20.65;;;4.10;;
64282;SDS011;50497;50.720;-2.084;2023-05-10T04:00:56;23.45;;;4.35;;
64282;SDS011;50497;50.720;-2.084;2023-05-10T04:03:28;19.45;;;4.18;;
64282;SDS011;50497;50.720;-2.084;2023-05-10T04:05:58;19.50;;;4.07;;
64282;SDS011;50497;50.720;-2.084;2023-05-10T04:08:27;21.50;;;4.72;;
64282;SDS011;50497;50.720;-2.084;2023-05-10T04:10:53;25.45;;;4.00;;
64282;SDS011;50497;50.720;-2.084;2023-05-10T04:13:22;18.77;;;4.03;;
64282;SDS011;50497;50.720;-2.084;2023-05-10T04:15:48;18.80;;;4.30;;
64282;SDS011;50497;50.720;-2.084;2023-05-10T04:18:13;18.08;;;4.60;;
64282;SDS011;50497;50.720;-2.084;2023-05-10T04:20:46;23.23;;;4.45;;
64282;SDS011;50497;50.720;-2.084;2023-05-10T04:23:12;17.67;;;4.13;;
64282;SDS011;50497;50.720;-2.084;2023-05-10T04:28:05;19.40;;;4.97;;
64282;SDS011;50497;50.720;-2.084;2023-05-10T04:30:30;18.13;;;4.80;;
64282;SDS011;50497;50.720;-2.084;2023-05-10T04:32:59;24.15;;;4.20;;
64282;SDS011;50497;50.720;-2.084;2023-05-10T04:35:25;26.63;;;4.70;;
64282;SDS011;50497;50.720;-2.084;2023-05-10T04:37:54;19.27;;;4.65;;
64282;SDS011;50497;50.720;-2.084;2023-05-10T04:40:23;18.48;;;4.03;;
64282;SDS011;50497;50.720;-2.084;2023-05-10T04:42:49;19.20;;;5.00;;
64282;SDS011;50497;50.720;-2.084;2023-05-10T04:45:19;20.90;;;4.88;;
64282;SDS011;50497;50.720;-2.084;2023-05-10T04:47:48;23.10;;;5.20;;
64282;SDS011;50497;50.720;-2.084;2023-05-10T04:50:14;21.88;;;4.60;;
64282;SDS011;50497;50.720;-2.084;2023-05-10T04:52:40;23.55;;;4.38;;
64282;SDS011;50497;50.720;-2.084;2023-05-10T04:55:05;15.15;;;3.95;;
64282;SDS011;50497;50.720;-2.084;2023-05-10T04:57:35;20.08;;;3.88;;
64282;SDS011;50497;50.720;-2.084;2023-05-10T05:00:05;22.55;;;3.88;;
64282;SDS011;50497;50.720;-2.084;2023-05-10T05:02:31;25.60;;;4.60;;
64282;SDS011;50497;50.720;-2.084;2023-05-10T05:04:57;18.98;;;4.28;;
64282;SDS011;50497;50.720;-2.084;2023-05-10T05:07:25;21.42;;;4.20;;
64282;SDS011;50497;50.720;-2.084;2023-05-10T05:09:53;20.73;;;4.07;;
64282;SDS011;50497;50.720;-2.084;2023-05-10T05:12:19;20.80;;;4.20;;
64282;SDS011;50497;50.720;-2.084;2023-05-10T05:14:44;18.17;;;4.10;;
64282;SDS011;50497;50.720;-2.084;2023-05-10T05:17:10;19.90;;;4.15;;
64282;SDS011;50497;50.720;-2.084;2023-05-10T05:19:36;17.45;;;3.55;;
64282;SDS011;50497;50.720;-2.084;2023-05-10T05:22:01;16.85;;;3.88;;
64282;SDS011;50497;50.720;-2.084;2023-05-10T05:24:27;17.77;;;4.18;;
64282;SDS011;50497;50.720;-2.084;2023-05-10T05:26:53;25.92;;;4.35;;
64282;SDS011;50497;50.720;-2.084;2023-05-10T05:29:18;25.17;;;4.35;;
64282;SDS011;50497;50.720;-2.084;2023-05-10T05:31:44;18.20;;;3.83;;
64282;SDS011;50497;50.720;-2.084;2023-05-10T05:34:09;18.50;;;4.10;;
64282;SDS011;50497;50.720;-2.084;2023-05-10T05:36:37;18.88;;;3.90;;
64282;SDS011;50497;50.720;-2.084;2023-05-10T05:39:07;20.38;;;4.05;;
64282;SDS011;50497;50.720;-2.084;2023-05-10T05:41:33;17.83;;;3.60;;
64282;SDS011;50497;50.720;-2.084;2023-05-10T05:43:58;18.75;;;3.72;;
64282;SDS011;50497;50.720;-2.084;2023-05-10T05:46:24;16.05;;;3.80;;
64282;SDS011;50497;50.720;-2.084;2023-05-10T05:48:49;17.88;;;3.63;;
64282;SDS011;50497;50.720;-2.084;2023-05-10T05:51:14;21.40;;;4.20;;
64282;SDS011;50497;50.720;-2.084;2023-05-10T05:53:40;17.63;;;3.92;;
64282;SDS011;50497;50.720;-2.084;2023-05-10T05:56:05;24.10;;;4.13;;
64282;SDS011;50497;50.720;-2.084;2023-05-10T05:58:34;18.00;;;3.72;;
64282;SDS011;50497;50.720;-2.084;2023-05-10T06:01:00;18.52;;;3.75;;
64282;SDS011;50497;50.720;-2.084;2023-05-10T06:03:26;20.55;;;4.05;;
64282;SDS011;50497;50.720;-2.084;2023-05-10T06:05:51;23.48;;;3.97;;
64282;SDS011;50497;50.720;-2.084;2023-05-10T06:08:17;19.40;;;3.90;;
64282;SDS011;50497;50.720;-2.084;2023-05-10T06:10:42;19.38;;;3.72;;
64282;SDS011;50497;50.720;-2.084;2023-05-10T06:13:09;15.65;;;3.35;;
64282;SDS011;50497;50.720;-2.084;2023-05-10T06:15:35;16.77;;;3.90;;
64282;SDS011;50497;50.720;-2.084;2023-05-10T06:18:01;14.23;;;3.50;;
64282;SDS011;50497;50.720;-2.084;2023-05-10T06:20:31;11.80;;;3.40;;
64282;SDS011;50497;50.720;-2.084;2023-05-10T06:22:57;15.95;;;3.63;;
64282;SDS011;50497;50.720;-2.084;2023-05-10T06:25:23;14.68;;;3.22;;
64282;SDS011;50497;50.720;-2.084;2023-05-10T06:27:53;16.33;;;3.10;;
64282;SDS011;50497;50.720;-2.084;2023-05-10T06:30:26;18.50;;;3.15;;
64282;SDS011;50497;50.720;-2.084;2023-05-10T06:32:53;15.80;;;3.20;;
64282;SDS011;50497;50.720;-2.084;2023-05-10T06:35:20;17.88;;;3.00;;
64282;SDS011;50497;50.720;-2.084;2023-05-10T06:37:45;17.92;;;3.10;;
64282;SDS011;50497;50.720;-2.084;2023-05-10T06:40:12;12.52;;;2.55;;
64282;SDS011;50497;50.720;-2.084;2023-05-10T06:42:45;14.15;;;3.08;;
64282;SDS011;50497;50.720;-2.084;2023-05-10T06:45:12;13.90;;;2.83;;
64282;SDS011;50497;50.720;-2.084;2023-05-10T06:47:39;15.43;;;2.80;;
64282;SDS011;50497;50.720;-2.084;2023-05-10T06:50:13;13.32;;;2.80;;
64282;SDS011;50497;50.720;-2.084;2023-05-10T06:52:49;13.18;;;3.03;;
64282;SDS011;50497;50.720;-2.084;2023-05-10T06:55:19;10.52;;;2.67;;
64282;SDS011;50497;50.720;-2.084;2023-05-10T06:57:44;13.95;;;2.90;;
64282;SDS011;50497;50.720;-2.084;2023-05-10T07:00:10;9.80;;;2.33;;
64282;SDS011;50497;50.720;-2.084;2023-05-10T07:02:37;12.00;;;2.25;;
64282;SDS011;50497;50.720;-2.084;2023-05-10T07:05:03;13.25;;;2.55;;
64282;SDS011;50497;50.720;-2.084;2023-05-10T07:07:33;17.10;;;2.65;;
64282;SDS011;50497;50.720;-2.084;2023-05-10T07:10:03;10.77;;;2.38;;
64282;SDS011;50497;50.720;-2.084;2023-05-10T07:12:29;9.00;;;2.35;;
64282;SDS011;50497;50.720;-2.084;2023-05-10T07:14:54;10.25;;;2.22;;
64282;SDS011;50497;50.720;-2.084;2023-05-10T07:17:21;13.02;;;2.40;;
64282;SDS011;50497;50.720;-2.084;2023-05-10T07:19:46;13.52;;;2.58;;
64282;SDS011;50497;50.720;-2.084;2023-05-10T07:22:12;10.68;;;2.45;;
64282;SDS011;50497;50.720;-2.084;2023-05-10T07:24:38;13.27;;;2.58;;
64282;SDS011;50497;50.720;-2.084;2023-05-10T07:27:03;9.00;;;1.85;;
64282;SDS011;50497;50.720;-2.084;2023-05-10T07:31:55;9.80;;;2.10;;
64282;SDS011;50497;50.720;-2.084;2023-05-10T07:34:20;8.23;;;2.00;;
64282;SDS011;50497;50.720;-2.084;2023-05-10T07:36:51;9.05;;;2.15;;
64282;SDS011;50497;50.720;-2.084;2023-05-10T07:39:22;7.55;;;2.28;;
64282;SDS011;50497;50.720;-2.084;2023-05-10T07:41:47;8.63;;;1.90;;
64282;SDS011;50497;50.720;-2.084;2023-05-10T07:44:13;9.15;;;2.15;;
64282;SDS011;50497;50.720;-2.084;2023-05-10T07:46:38;15.27;;;2.33;;
64282;SDS011;50497;50.720;-2.084;2023-05-10T07:49:04;9.98;;;2.20;;
64282;SDS011;50497;50.720;-2.084;2023-05-10T07:51:29;8.68;;;2.40;;
64282;SDS011;50497;50.720;-2.084;2023-05-10T07:53:55;9.57;;;2.30;;
64282;SDS011;50497;50.720;-2.084;2023-05-10T07:56:31;11.07;;;2.30;;
64282;SDS011;50497;50.720;-2.084;2023-05-10T07:59:01;7.63;;;2.00;;
64282;SDS011;50497;50.720;-2.084;2023-05-10T08:01:32;11.27;;;2.40;;
64282;SDS011;50497;50.720;-2.084;2023-05-10T08:03:58;12.57;;;2.25;;
64282;SDS011;50497;50.720;-2.084;2023-05-10T08:08:52;10.50;;;2.22;;
64282;SDS011;50497;50.720;-2.084;2023-05-10T08:11:22;8.10;;;2.15;;
64282;SDS011;50497;50.720;-2.084;2023-05-10T08:13:48;9.20;;;2.05;;
64282;SDS011;50497;50.720;-2.084;2023-05-10T08:16:16;11.27;;;2.20;;
64282;SDS011;50497;50.720;-2.084;2023-05-10T08:18:44;10.38;;;2.30;;
64282;SDS011;50497;50.720;-2.084;2023-05-10T08:21:11;10.38;;;2.20;;
64282;SDS011;50497;50.720;-2.084;2023-05-10T08:23:37;9.60;;;2.00;;
64282;SDS011;50497;50.720;-2.084;2023-05-10T08:26:03;11.52;;;2.33;;
64282;SDS011;50497;50.720;-2.084;2023-05-10T08:28:29;9.88;;;2.50;;
64282;SDS011;50497;50.720;-2.084;2023-05-10T08:30:55;8.65;;;1.90;;
64282;SDS011;50497;50.720;-2.084;2023-05-10T08:33:23;10.40;;;2.40;;
64282;SDS011;50497;50.720;-2.084;2023-05-10T08:35:52;7.85;;;2.25;;
64282;SDS011;50497;50.720;-2.084;2023-05-10T08:38:18;9.55;;;2.00;;
64282;SDS011;50497;50.720;-2.084;2023-05-10T08:40:44;11.55;;;2.40;;
64282;SDS011;50497;50.720;-2.084;2023-05-10T08:43:15;8.20;;;2.13;;
64282;SDS011;50497;50.720;-2.084;2023-05-10T08:45:44;8.68;;;2.38;;
64282;SDS011;50497;50.720;-2.084;2023-05-10T08:48:14;8.57;;;2.40;;
64282;SDS011;50497;50.720;-2.084;2023-05-10T08:50:41;9.48;;;1.85;;
64282;SDS011;50497;50.720;-2.084;2023-05-10T08:53:11;10.73;;;2.10;;
64282;SDS011;50497;50.720;-2.084;2023-05-10T08:55:38;9.35;;;2.03;;
64282;SDS011;50497;50.720;-2.084;2023-05-10T08:58:08;8.90;;;2.15;;
64282;SDS011;50497;50.720;-2.084;2023-05-10T09:00:34;13.23;;;2.42;;
64282;SDS011;50497;50.720;-2.084;2023-05-10T09:03:04;10.25;;;2.35;;
64282;SDS011;50497;50.720;-2.084;2023-05-10T09:05:30;9.70;;;2.00;;
64282;SDS011;50497;50.720;-2.084;2023-05-10T09:10:21;8.90;;;1.80;;
64282;SDS011;50497;50.720;-2.084;2023-05-10T09:12:56;8.38;;;1.90;;
64282;SDS011;50497;50.720;-2.084;2023-05-10T09:15:27;6.70;;;1.75;;
64282;SDS011;50497;50.720;-2.084;2023-05-10T09:17:57;8.48;;;1.88;;
64282;SDS011;50497;50.720;-2.084;2023-05-10T09:20:31;7.55;;;1.90;;
64282;SDS011;50497;50.720;-2.084;2023-05-10T09:22:57;8.20;;;1.80;;
64282;SDS011;50497;50.720;-2.084;2023-05-10T09:25:24;7.13;;;1.80;;
64282;SDS011;50497;50.720;-2.084;2023-05-10T09:27:50;7.32;;;1.83;;
64282;SDS011;50497;50.720;-2.084;2023-05-10T09:30:17;8.57;;;2.22;;
64282;SDS011;50497;50.720;-2.084;2023-05-10T09:32:43;9.60;;;2.10;;
64282;SDS011;50497;50.720;-2.084;2023-05-10T09:35:15;8.20;;;2.05;;
64282;SDS011;50497;50.720;-2.084;2023-05-10T09:37:43;6.82;;;2.20;;
64282;SDS011;50497;50.720;-2.084;2023-05-10T09:40:12;7.35;;;2.05;;
64282;SDS011;50497;50.720;-2.084;2023-05-10T09:42:40;8.50;;;2.22;;
64282;SDS011;50497;50.720;-2.084;2023-05-10T09:45:07;5.90;;;1.73;;
64282;SDS011;50497;50.720;-2.084;2023-05-10T09:47:34;8.05;;;1.90;;
64282;SDS011;50497;50.720;-2.084;2023-05-10T09:50:01;7.38;;;1.83;;
64282;SDS011;50497;50.720;-2.084;2023-05-10T09:52:45;6.57;;;1.88;;
64282;SDS011;50497;50.720;-2.084;2023-05-10T09:55:14;7.65;;;1.90;;
64282;SDS011;50497;50.720;-2.084;2023-05-10T09:57:43;5.93;;;1.98;;
64282;SDS011;50497;50.720;-2.084;2023-05-10T10:00:16;4.93;;;1.20;;
64282;SDS011;50497;50.720;-2.084;2023-05-10T10:05:19;5.90;;;1.60;;
64282;SDS011;50497;50.720;-2.084;2023-05-10T10:07:45;5.43;;;1.98;;
64282;SDS011;50497;50.720;-2.084;2023-05-10T10:10:11;10.23;;;1.60;;
64282;SDS011;50497;50.720;-2.084;2023-05-10T10:12:38;5.45;;;1.40;;
64282;SDS011;50497;50.720;-2.084;2023-05-10T10:15:06;4.43;;;1.38;;
64282;SDS011;50497;50.720;-2.084;2023-05-10T10:17:35;5.88;;;1.50;;
64282;SDS011;50497;50.720;-2.084;2023-05-10T10:20:06;5.43;;;1.40;;
64282;SDS011;50497;50.720;-2.084;2023-05-10T10:22:32;5.05;;;1.60;;
64282;SDS011;50497;50.720;-2.084;2023-05-10T10:24:58;7.75;;;1.60;;
64282;SDS011;50497;50.720;-2.084;2023-05-10T10:27:41;8.50;;;1.77;;
64282;SDS011;50497;50.720;-2.084;2023-05-10T10:35:33;7.28;;;1.63;;
64282;SDS011;50497;50.720;-2.084;2023-05-10T10:38:00;8.93;;;1.80;;
64282;SDS011;50497;50.720;-2.084;2023-05-10T10:42:52;7.60;;;1.70;;
64282;SDS011;50497;50.720;-2.084;2023-05-10T10:45:19;7.25;;;1.65;;
64282;SDS011;50497;50.720;-2.084;2023-05-10T10:47:46;6.75;;;1.85;;
64282;SDS011;50497;50.720;-2.084;2023-05-10T10:50:12;9.25;;;2.13;;
64282;SDS011;50497;50.720;-2.084;2023-05-10T10:52:45;7.53;;;2.10;;
64282;SDS011;50497;50.720;-2.084;2023-05-10T10:55:17;8.18;;;1.83;;
64282;SDS011;50497;50.720;-2.084;2023-05-10T10:57:48;8.02;;;1.95;;
64282;SDS011;50497;50.720;-2.084;2023-05-10T11:00:18;9.52;;;2.03;;
64282;SDS011;50497;50.720;-2.084;2023-05-10T11:02:54;7.28;;;1.63;;
64282;SDS011;50497;50.720;-2.084;2023-05-10T11:05:33;10.52;;;1.85;;
64282;SDS011;50497;50.720;-2.084;2023-05-10T11:10:35;8.77;;;2.13;;
64282;SDS011;50497;50.720;-2.084;2023-05-10T11:13:05;12.07;;;2.70;;
64282;SDS011;50497;50.720;-2.084;2023-05-10T11:15:33;9.63;;;2.17;;
64282;SDS011;50497;50.720;-2.084;2023-05-10T11:17:59;9.27;;;2.20;;
64282;SDS011;50497;50.720;-2.084;2023-05-10T11:20:50;8.82;;;2.20;;
64282;SDS011;50497;50.720;-2.084;2023-05-10T11:26:25;9.13;;;2.20;;
64282;SDS011;50497;50.720;-2.084;2023-05-10T11:31:27;8.05;;;2.00;;
64282;SDS011;50497;50.720;-2.084;2023-05-10T11:33:53;7.53;;;1.80;;
64282;SDS011;50497;50.720;-2.084;2023-05-10T11:36:24;9.15;;;2.30;;
64282;SDS011;50497;50.720;-2.084;2023-05-10T11:38:51;9.20;;;2.10;;
64282;SDS011;50497;50.720;-2.084;2023-05-10T11:41:17;9.43;;;2.20;;
64282;SDS011;50497;50.720;-2.084;2023-05-10T11:43:44;10.82;;;2.40;;
64282;SDS011;50497;50.720;-2.084;2023-05-10T11:46:16;9.60;;;2.25;;
64282;SDS011;50497;50.720;-2.084;2023-05-10T11:48:50;12.60;;;2.45;;
64282;SDS011;50497;50.720;-2.084;2023-05-10T11:51:21;10.15;;;2.13;;
64282;SDS011;50497;50.720;-2.084;2023-05-10T11:53:48;7.10;;;1.80;;
64282;SDS011;50497;50.720;-2.084;2023-05-10T11:56:18;10.32;;;2.83;;
64282;SDS011;50497;50.720;-2.084;2023-05-10T11:58:52;7.57;;;2.30;;
64282;SDS011;50497;50.720;-2.084;2023-05-10T12:01:20;8.50;;;2.30;;
64282;SDS011;50497;50.720;-2.084;2023-05-10T12:03:46;8.85;;;2.15;;
64282;SDS011;50497;50.720;-2.084;2023-05-10T12:06:17;9.48;;;2.40;;
64282;SDS011;50497;50.720;-2.084;2023-05-10T12:08:46;10.38;;;2.50;;
64282;SDS011;50497;50.720;-2.084;2023-05-10T12:11:18;8.82;;;2.15;;
64282;SDS011;50497;50.720;-2.084;2023-05-10T12:13:46;8.23;;;2.08;;
64282;SDS011;50497;50.720;-2.084;2023-05-10T12:16:16;7.32;;;1.95;;
64282;SDS011;50497;50.720;-2.084;2023-05-10T12:18:44;8.57;;;2.20;;
64282;SDS011;50497;50.720;-2.084;2023-05-10T12:21:13;8.57;;;2.10;;
64282;SDS011;50497;50.720;-2.084;2023-05-10T12:23:48;8.40;;;2.17;;
64282;SDS011;50497;50.720;-2.084;2023-05-10T12:26:17;8.02;;;2.13;;
64282;SDS011;50497;50.720;-2.084;2023-05-10T12:28:43;8.30;;;1.98;;
64282;SDS011;50497;50.720;-2.084;2023-05-10T12:31:09;9.07;;;2.03;;
64282;SDS011;50497;50.720;-2.084;2023-05-10T12:33:41;8.00;;;1.95;;
64282;SDS011;50497;50.720;-2.084;2023-05-10T12:36:08;6.80;;;2.03;;
64282;SDS011;50497;50.720;-2.084;2023-05-10T12:38:36;6.40;;;1.60;;
64282;SDS011;50497;50.720;-2.084;2023-05-10T12:41:15;5.80;;;1.60;;
64282;SDS011;50497;50.720;-2.084;2023-05-10T12:43:44;7.90;;;1.75;;
64282;SDS011;50497;50.720;-2.084;2023-05-10T12:46:14;6.93;;;1.92;;
64282;SDS011;50497;50.720;-2.084;2023-05-10T12:48:41;9.00;;;1.77;;
64282;SDS011;50497;50.720;-2.084;2023-05-10T12:51:08;6.60;;;1.90;;
64282;SDS011;50497;50.720;-2.084;2023-05-10T12:53:46;7.13;;;1.65;;
64282;SDS011;50497;50.720;-2.084;2023-05-10T12:56:13;5.63;;;1.80;;
64282;SDS011;50497;50.720;-2.084;2023-05-10T12:58:38;7.63;;;1.80;;
64282;SDS011;50497;50.720;-2.084;2023-05-10T13:01:07;8.85;;;2.00;;
64282;SDS011;50497;50.720;-2.084;2023-05-10T13:03:33;7.78;;;2.10;;
64282;SDS011;50497;50.720;-2.084;2023-05-10T13:05:59;7.35;;;1.90;;
64282;SDS011;50497;50.720;-2.084;2023-05-10T13:08:29;9.18;;;1.88;;
64282;SDS011;50497;50.720;-2.084;2023-05-10T13:10:58;8.48;;;2.33;;
64282;SDS011;50497;50.720;-2.084;2023-05-10T13:15:50;6.28;;;2.00;;
64282;SDS011;50497;50.720;-2.084;2023-05-10T13:18:16;8.55;;;2.03;;
64282;SDS011;50497;50.720;-2.084;2023-05-10T13:20:41;7.68;;;1.90;;
64282;SDS011;50497;50.720;-2.084;2023-05-10T13:23:14;7.63;;;2.40;;
64282;SDS011;50497;50.720;-2.084;2023-05-10T13:25:42;6.57;;;1.98;;
64282;SDS011;50497;50.720;-2.084;2023-05-10T13:28:08;9.45;;;2.28;;
64282;SDS011;50497;50.720;-2.084;2023-05-10T13:33:00;5.88;;;1.50;;
64282;SDS011;50497;50.720;-2.084;2023-05-10T13:35:25;6.70;;;1.52;;
64282;SDS011;50497;50.720;-2.084;2023-05-10T13:37:55;6.35;;;1.67;;
64282;SDS011;50497;50.720;-2.084;2023-05-10T13:40:22;5.18;;;1.52;;
64282;SDS011;50497;50.720;-2.084;2023-05-10T13:42:48;8.32;;;1.60;;
64282;SDS011;50497;50.720;-2.084;2023-05-10T13:45:17;5.80;;;1.60;;
64282;SDS011;50497;50.720;-2.084;2023-05-10T13:47:43;4.03;;;1.40;;
64282;SDS011;50497;50.720;-2.084;2023-05-10T13:50:17;5.65;;;1.50;;
64282;SDS011;50497;50.720;-2.084;2023-05-10T13:52:46;4.88;;;1.52;;
64282;SDS011;50497;50.720;-2.084;2023-05-10T13:55:12;4.18;;;1.40;;
64282;SDS011;50497;50.720;-2.084;2023-05-10T13:57:38;5.65;;;1.63;;
64282;SDS011;50497;50.720;-2.084;2023-05-10T14:00:08;4.78;;;1.33;;
64282;SDS011;50497;50.720;-2.084;2023-05-10T14:02:34;7.25;;;1.60;;
64282;SDS011;50497;50.720;-2.084;2023-05-10T14:05:00;5.70;;;1.40;;
64282;SDS011;50497;50.720;-2.084;2023-05-10T14:07:26;6.60;;;1.80;;
64282;SDS011;50497;50.720;-2.084;2023-05-10T14:09:56;6.50;;;1.50;;
64282;SDS011;50497;50.720;-2.084;2023-05-10T14:12:21;6.28;;;1.70;;
64282;SDS011;50497;50.720;-2.084;2023-05-10T14:14:47;6.65;;;1.80;;
64282;SDS011;50497;50.720;-2.084;2023-05-10T14:17:12;9.05;;;2.10;;
64282;SDS011;50497;50.720;-2.084;2023-05-10T14:19:38;5.82;;;1.73;;
64282;SDS011;50497;50.720;-2.084;2023-05-10T14:22:03;4.60;;;1.58;;
64282;SDS011;50497;50.720;-2.084;2023-05-10T14:24:29;9.30;;;2.10;;
64282;SDS011;50497;50.720;-2.084;2023-05-10T14:26:55;8.25;;;1.70;;
64282;SDS011;50497;50.720;-2.084;2023-05-10T14:29:21;7.00;;;1.60;;
64282;SDS011;50497;50.720;-2.084;2023-05-10T14:31:51;6.43;;;2.00;;
64282;SDS011;50497;50.720;-2.084;2023-05-10T14:34:16;5.80;;;1.75;;
64282;SDS011;50497;50.720;-2.084;2023-05-10T14:36:42;6.07;;;1.73;;
64282;SDS011;50497;50.720;-2.084;2023-05-10T14:39:08;5.57;;;1.58;;
64282;SDS011;50497;50.720;-2.084;2023-05-10T14:41:39;6.38;;;1.80;;
64282;SDS011;50497;50.720;-2.084;2023-05-10T14:44:07;6.10;;;1.90;;
64282;SDS011;50497;50.720;-2.084;2023-05-10T14:46:36;5.82;;;1.42;;
64282;SDS011;50497;50.720;-2.084;2023-05-10T14:51:29;5.55;;;1.55;;
64282;SDS011;50497;50.720;-2.084;2023-05-10T14:53:58;4.38;;;1.67;;
64282;SDS011;50497;50.720;-2.084;2023-05-10T14:56:24;8.23;;;1.50;;
64282;SDS011;50497;50.720;-2.084;2023-05-10T14:58:50;5.88;;;1.40;;
64282;SDS011;50497;50.720;-2.084;2023-05-10T15:01:21;5.30;;;1.42;;
64282;SDS011;50497;50.720;-2.084;2023-05-10T15:03:46;4.40;;;1.33;;
64282;SDS011;50497;50.720;-2.084;2023-05-10T15:06:13;5.20;;;1.40;;
64282;SDS011;50497;50.720;-2.084;2023-05-10T15:08:41;5.18;;;1.50;;
64282;SDS011;50497;50.720;-2.084;2023-05-10T15:11:06;5.28;;;1.40;;
64282;SDS011;50497;50.720;-2.084;2023-05-10T15:13:32;6.28;;;1.48;;
64282;SDS011;50497;50.720;-2.084;2023-05-10T15:15:57;5.40;;;1.45;;
64282;SDS011;50497;50.720;-2.084;2023-05-10T15:18:24;4.25;;;1.48;;
64282;SDS011;50497;50.720;-2.084;2023-05-10T15:20:49;5.45;;;1.58;;
64282;SDS011;50497;50.720;-2.084;2023-05-10T15:23:15;7.03;;;1.50;;
64282;SDS011;50497;50.720;-2.084;2023-05-10T15:25:40;5.60;;;1.30;;